Ana Sayfa
METAR-TAF:

METAR-TAF

Havaalanları :

Tunus-Kartaca Uluslararası Havalimanı

Tunus, Tunus

Enlem: 36-50N, Boylam: 010-14E, yükseklik: 3 m

Güncel hava durumu gözlemi

Rapor saat 03:00 UTC de 28 dakika önce yapıldı.
Rüzgar güneydan 7 kt
Sıcaklık 12°C
Nem 76%
Basınç 1016 hPa
Görüş mesafesi 10 km veya daha fazla
2600 ft yükseklikte az bulutlu
3600 ft yükseklikte parçalı bulutlu

METAR: DTTA 130300Z 17007KT 9999 FEW026 SCT036 12/08 Q1016 NOSIG

Saat: 04:28 (03:28 UTC)

Tahmin

Rapor saat 23:00 UTC de 4 saat ve 28 dakika önce yapıldı.
Ayın 13'si saat 00 UTC'den ayın 13'si saat 24 UTC'ye kadar geçerli Tahmin
Rüzgar güney/güneybatıdan 4 kt
Görüş mesafesi 10 km veya daha fazla
2600 ft yükseklikte parçalı bulutlu

TAF: DTTA 122300Z 1300/1324 20004KT 9999 SCT026

4.000'den fazla havaalanı için hava durumu gözlemleri ve tahminleri (METAR ve TAF raporları).

Kullanılabilir istasyonlar harita üzerinde sarı ve kırmızı noktalarla gösterilir.

İstasyonun adını görmek için fareyi noktanın üzerinde gezdirin.

Sonrasında hava gözlem ve tahminlerini görmek için tıklayın.

Haritayı değiştirmek için: yaklaştırmak için siyah artı işaretli yeşil düğmeye ve uzaklaştırmak için de eksi işaretli düğmeye hızla tıklayın; bitişik haritalar için yeşil okları kullanın.


METAR-TAF: